createdAt,value
2018-03-04T00:00:17.364Z,2.87
2018-03-04T00:01:17.338Z,2.87
2018-03-04T00:02:17.340Z,2.94
2018-03-04T00:03:17.354Z,2.81
2018-03-04T00:04:17.338Z,2.94
2018-03-04T00:05:17.347Z,2.81
2018-03-04T00:06:17.410Z,2.87
2018-03-04T00:07:17.356Z,2.81
2018-03-04T00:08:17.370Z,2.81
2018-03-04T00:09:17.358Z,2.87
2018-03-04T00:10:17.384Z,2.81
2018-03-04T00:11:17.377Z,2.81
2018-03-04T00:12:17.364Z,2.81
2018-03-04T00:13:17.360Z,2.81
2018-03-04T00:14:17.379Z,2.75
2018-03-04T00:15:17.368Z,2.75
2018-03-04T00:16:17.370Z,2.75
2018-03-04T00:17:17.399Z,2.81
2018-03-04T00:18:17.390Z,2.75
2018-03-04T00:19:17.378Z,2.81
2018-03-04T00:20:17.377Z,2.75
2018-03-04T00:21:17.371Z,2.75
2018-03-04T00:22:17.415Z,2.81
2018-03-04T00:23:17.396Z,2.81
2018-03-04T00:24:17.402Z,2.81
2018-03-04T00:25:17.378Z,2.75
2018-03-04T00:26:17.388Z,2.81
2018-03-04T00:27:17.417Z,2.75
2018-03-04T00:28:17.404Z,2.75
2018-03-04T00:29:17.404Z,2.75
2018-03-04T00:31:23.633Z,2.75
2018-03-04T00:32:17.415Z,2.75
2018-03-04T00:33:17.423Z,2.75
2018-03-04T00:34:17.443Z,2.75
2018-03-04T00:35:17.407Z,2.75
2018-03-04T00:36:17.430Z,2.75
2018-03-04T00:37:17.410Z,2.81
2018-03-04T00:38:17.455Z,2.75
2018-03-04T00:39:17.451Z,2.81
2018-03-04T00:41:23.699Z,2.75
2018-03-04T00:42:17.456Z,2.75
2018-03-04T00:43:17.415Z,2.75
2018-03-04T00:44:17.429Z,2.75
2018-03-04T00:45:17.432Z,2.81
2018-03-04T00:46:17.454Z,2.75
2018-03-04T00:47:17.443Z,2.75
2018-03-04T00:48:17.454Z,2.75
2018-03-04T00:49:17.466Z,2.75
2018-03-04T00:50:17.462Z,2.75
2018-03-04T00:51:17.466Z,2.75
2018-03-04T00:52:17.773Z,2.75
2018-03-04T00:53:17.461Z,2.75
2018-03-04T00:54:17.474Z,2.75
2018-03-04T00:55:17.465Z,2.69
2018-03-04T00:56:17.477Z,2.75
2018-03-04T00:57:17.489Z,2.69
2018-03-04T00:58:17.485Z,2.75
2018-03-04T00:59:17.483Z,2.75
2018-03-04T01:00:17.493Z,2.75
2018-03-04T01:01:17.480Z,2.75
2018-03-04T01:02:17.507Z,2.75
2018-03-04T01:03:17.481Z,2.75
2018-03-04T01:04:17.482Z,2.75
2018-03-04T01:05:17.507Z,2.75
2018-03-04T01:06:17.500Z,2.69
2018-03-04T01:07:17.502Z,2.75
2018-03-04T01:08:17.512Z,2.69
2018-03-04T01:09:17.493Z,2.69
2018-03-04T01:10:17.488Z,2.69
2018-03-04T01:11:17.546Z,2.69
2018-03-04T01:12:17.575Z,2.69
2018-03-04T01:13:17.788Z,2.69
2018-03-04T01:14:17.516Z,2.69
2018-03-04T01:15:17.535Z,2.69
2018-03-04T01:16:17.531Z,2.69
2018-03-04T01:17:17.522Z,2.69
2018-03-04T01:18:17.545Z,2.69
2018-03-04T01:20:23.792Z,2.69
2018-03-04T01:21:17.535Z,2.62
2018-03-04T01:22:17.551Z,2.62
2018-03-04T01:23:17.565Z,2.69
2018-03-04T01:24:17.546Z,2.69
2018-03-04T01:25:17.543Z,2.62
2018-03-04T01:26:17.561Z,2.62
2018-03-04T01:27:17.571Z,2.62
2018-03-04T01:28:17.543Z,2.62
2018-03-04T01:29:17.581Z,2.62
2018-03-04T01:30:17.589Z,2.62
2018-03-04T01:31:17.565Z,2.62
2018-03-04T01:32:17.584Z,2.62
2018-03-04T01:33:17.575Z,2.62
2018-03-04T01:34:17.598Z,2.62
2018-03-04T01:35:17.570Z,2.69
2018-03-04T01:36:17.611Z,2.62
2018-03-04T01:37:17.570Z,2.69
2018-03-04T01:38:17.584Z,2.69
2018-03-04T01:39:17.612Z,2.69
2018-03-04T01:40:17.590Z,2.62
2018-03-04T01:41:17.599Z,2.69
2018-03-04T01:42:17.636Z,2.69
2018-03-04T01:43:17.592Z,2.62
2018-03-04T01:44:17.628Z,2.69
2018-03-04T01:45:17.623Z,2.69
2018-03-04T01:46:17.615Z,2.69
2018-03-04T01:47:17.601Z,2.62
2018-03-04T01:48:17.679Z,2.69
2018-03-04T01:49:17.623Z,2.69
2018-03-04T01:50:17.622Z,2.69
2018-03-04T01:51:17.645Z,2.69
2018-03-04T01:52:17.641Z,2.75
2018-03-04T01:53:17.645Z,2.69
2018-03-04T01:54:17.629Z,2.69
2018-03-04T01:55:17.689Z,2.75
2018-03-04T01:56:17.649Z,2.75
2018-03-04T01:57:17.970Z,2.75
2018-03-04T01:58:17.666Z,2.75
2018-03-04T01:59:17.810Z,2.75
2018-03-04T02:00:17.657Z,2.75
2018-03-04T02:01:17.652Z,2.81
2018-03-04T02:02:17.701Z,2.75
2018-03-04T02:03:17.668Z,2.87
2018-03-04T02:04:17.711Z,2.81
2018-03-04T02:05:17.659Z,2.81
2018-03-04T02:06:17.667Z,2.75
2018-03-04T02:07:17.685Z,2.81
2018-03-04T02:08:17.671Z,2.75
2018-03-04T02:09:17.680Z,2.75
2018-03-04T02:10:17.678Z,2.81
2018-03-04T02:11:17.683Z,2.81
2018-03-04T02:12:17.682Z,2.81
2018-03-04T02:13:17.708Z,2.81
2018-03-04T02:14:17.697Z,2.81
2018-03-04T02:15:17.704Z,2.81
2018-03-04T02:16:17.722Z,2.81
2018-03-04T02:18:25.933Z,2.81
2018-03-04T02:19:17.730Z,2.81
2018-03-04T02:20:17.701Z,2.81
2018-03-04T02:21:17.718Z,2.81
2018-03-04T02:22:17.703Z,2.81
2018-03-04T02:23:17.720Z,2.81
2018-03-04T02:24:17.713Z,2.81
2018-03-04T02:25:17.742Z,2.81
2018-03-04T02:26:17.696Z,2.81
2018-03-04T02:27:17.690Z,2.81
2018-03-04T02:28:17.687Z,2.81
2018-03-04T02:29:17.745Z,2.81
2018-03-04T02:30:17.738Z,2.81
2018-03-04T02:31:17.710Z,2.87
2018-03-04T02:32:17.735Z,2.81
2018-03-04T02:33:17.736Z,2.81
2018-03-04T02:34:17.745Z,2.75
2018-03-04T02:35:17.755Z,2.75
2018-03-04T02:36:17.783Z,2.81
2018-03-04T02:37:17.739Z,2.75
2018-03-04T02:38:17.743Z,2.81
2018-03-04T02:39:17.742Z,2.81
2018-03-04T02:40:18.015Z,2.75
2018-03-04T02:41:17.755Z,2.75
2018-03-04T02:42:17.748Z,2.75
2018-03-04T02:43:17.780Z,2.75
2018-03-04T02:44:17.759Z,2.75
2018-03-04T02:45:17.781Z,2.75
2018-03-04T02:46:17.801Z,2.75
2018-03-04T02:47:17.759Z,2.75
2018-03-04T02:48:17.748Z,2.75
2018-03-04T02:49:17.794Z,2.75
2018-03-04T02:50:17.765Z,2.75
2018-03-04T02:51:17.806Z,2.75
2018-03-04T02:52:17.869Z,2.75
2018-03-04T02:53:17.822Z,2.69
2018-03-04T02:54:17.780Z,2.62
2018-03-04T02:55:17.783Z,2.69
2018-03-04T02:56:17.787Z,2.69
2018-03-04T02:57:17.770Z,2.69
2018-03-04T02:58:17.804Z,2.62
2018-03-04T02:59:17.775Z,2.62
2018-03-04T03:00:17.829Z,2.62
2018-03-04T03:01:17.813Z,2.62
2018-03-04T03:02:17.798Z,2.69
2018-03-04T03:03:17.838Z,2.62
2018-03-04T03:04:17.847Z,2.62
2018-03-04T03:05:17.800Z,2.62
2018-03-04T03:07:24.105Z,2.69
2018-03-04T03:08:17.832Z,2.69
2018-03-04T03:09:17.844Z,2.69
2018-03-04T03:10:17.835Z,2.69
2018-03-04T03:11:17.845Z,2.69
2018-03-04T03:12:17.835Z,2.69
2018-03-04T03:13:17.864Z,2.69
2018-03-04T03:14:17.854Z,2.69
2018-03-04T03:15:17.897Z,2.62
2018-03-04T03:17:24.005Z,2.69
2018-03-04T03:18:17.836Z,2.69
2018-03-04T03:19:17.825Z,2.75
2018-03-04T03:20:17.854Z,2.69
2018-03-04T03:21:17.905Z,2.69
2018-03-04T03:22:17.852Z,2.69
2018-03-04T03:23:17.851Z,2.69
2018-03-04T03:24:17.854Z,2.69
2018-03-04T03:25:17.873Z,2.69
2018-03-04T03:26:17.892Z,2.69
2018-03-04T03:27:17.884Z,2.69
2018-03-04T03:28:17.870Z,2.69
2018-03-04T03:29:17.876Z,2.69
2018-03-04T03:30:17.908Z,2.62
2018-03-04T03:31:17.911Z,2.69
2018-03-04T03:32:17.896Z,2.69
2018-03-04T03:33:17.902Z,2.69
2018-03-04T03:34:17.890Z,2.75
2018-03-04T03:36:38.711Z,2.75
2018-03-04T03:37:17.892Z,2.69
2018-03-04T03:38:17.917Z,2.69
2018-03-04T03:39:17.892Z,2.75
2018-03-04T03:40:17.897Z,2.69
2018-03-04T03:41:17.902Z,2.69
2018-03-04T03:42:17.919Z,2.75
2018-03-04T03:43:17.916Z,2.75
2018-03-04T03:44:17.912Z,2.69
2018-03-04T03:45:17.929Z,2.75
2018-03-04T03:46:17.937Z,2.75
2018-03-04T03:47:18.524Z,2.75
2018-03-04T03:48:17.960Z,2.75
2018-03-04T03:49:17.956Z,2.75
2018-03-04T03:50:17.941Z,2.75
2018-03-04T03:51:17.940Z,2.75
2018-03-04T03:52:17.925Z,2.69
2018-03-04T03:53:17.959Z,2.75
2018-03-04T03:54:17.948Z,2.75
2018-03-04T03:55:17.987Z,2.75
2018-03-04T03:56:17.980Z,2.75
2018-03-04T03:57:17.993Z,2.69
2018-03-04T03:58:17.978Z,2.75
2018-03-04T03:59:17.988Z,2.75
2018-03-04T04:00:18.259Z,2.75
2018-03-04T04:01:17.954Z,2.75
2018-03-04T04:02:19.084Z,2.75
2018-03-04T04:03:18.127Z,2.69
2018-03-04T04:04:20.962Z,2.69
2018-03-04T04:05:24.342Z,2.69
2018-03-04T04:06:27.455Z,2.69
2018-03-04T04:07:21.248Z,2.69
2018-03-04T04:08:23.684Z,2.69
2018-03-04T04:09:31.404Z,2.69
2018-03-04T04:10:21.430Z,2.69
2018-03-04T04:11:20.694Z,2.75
2018-03-04T04:12:28.472Z,2.69
2018-03-04T04:13:18.047Z,2.75
2018-03-04T04:14:18.025Z,2.69
2018-03-04T04:15:18.326Z,2.69
2018-03-04T04:16:18.065Z,2.75
2018-03-04T04:17:18.050Z,2.69
2018-03-04T04:18:18.055Z,2.69
2018-03-04T04:19:18.038Z,2.69
2018-03-04T04:20:18.056Z,2.62
2018-03-04T04:21:18.035Z,2.62
2018-03-04T04:22:18.055Z,2.62
2018-03-04T04:23:18.060Z,2.62
2018-03-04T04:24:18.095Z,2.62
2018-03-04T04:25:18.063Z,2.62
2018-03-04T04:26:18.079Z,2.62
2018-03-04T04:27:18.079Z,2.62
2018-03-04T04:28:18.099Z,2.62
2018-03-04T04:29:18.248Z,2.62
2018-03-04T04:30:18.082Z,2.62
2018-03-04T04:31:18.081Z,2.56
2018-03-04T04:32:18.074Z,2.56
2018-03-04T04:33:18.083Z,2.56
2018-03-04T04:34:18.113Z,2.56
2018-03-04T04:35:18.114Z,2.56
2018-03-04T04:36:18.133Z,2.56
2018-03-04T04:37:18.095Z,2.5
2018-03-04T04:38:18.134Z,2.56
2018-03-04T04:39:18.155Z,2.56
2018-03-04T04:41:24.668Z,2.5
2018-03-04T04:42:18.108Z,2.5
2018-03-04T04:43:18.112Z,2.44
2018-03-04T04:44:18.122Z,2.44
2018-03-04T04:45:18.244Z,2.44
2018-03-04T04:46:18.184Z,2.37
2018-03-04T04:47:18.161Z,2.44
2018-03-04T04:48:18.130Z,2.37
2018-03-04T04:49:18.133Z,2.37
2018-03-04T04:51:24.435Z,2.44
2018-03-04T04:52:18.205Z,2.37
2018-03-04T04:53:18.178Z,2.37
2018-03-04T04:54:18.197Z,2.37
2018-03-04T04:55:18.176Z,2.37
2018-03-04T04:56:18.204Z,2.37
2018-03-04T04:57:18.500Z,2.37
2018-03-04T04:58:18.316Z,2.37
2018-03-04T04:59:18.202Z,2.31
2018-03-04T05:00:18.210Z,2.37
2018-03-04T05:01:18.193Z,2.31
2018-03-04T05:02:18.244Z,2.31
2018-03-04T05:03:18.199Z,2.31
2018-03-04T05:04:18.272Z,2.31
2018-03-04T05:05:18.224Z,2.31
2018-03-04T05:06:18.210Z,2.31
2018-03-04T05:07:18.257Z,2.25
2018-03-04T05:08:18.240Z,2.25
2018-03-04T05:09:18.218Z,2.25
2018-03-04T05:10:18.232Z,2.25
2018-03-04T05:11:18.293Z,2.25
2018-03-04T05:12:18.250Z,2.25
2018-03-04T05:13:18.241Z,2.25
2018-03-04T05:14:18.287Z,2.25
2018-03-04T05:15:18.227Z,2.31
2018-03-04T05:16:18.246Z,2.31
2018-03-04T05:17:18.242Z,2.31
2018-03-04T05:18:18.290Z,2.25
2018-03-04T05:19:18.281Z,2.31
2018-03-04T05:20:18.239Z,2.25
2018-03-04T05:21:18.283Z,2.31
2018-03-04T05:22:18.250Z,2.25
2018-03-04T05:23:18.259Z,2.25
2018-03-04T05:24:18.267Z,2.31
2018-03-04T05:25:18.270Z,2.25
2018-03-04T05:26:18.277Z,2.31
2018-03-04T05:27:18.254Z,2.31
2018-03-04T05:28:18.325Z,2.31
2018-03-04T05:29:18.252Z,2.31
2018-03-04T05:30:18.271Z,2.31
2018-03-04T05:31:18.275Z,2.31
2018-03-04T05:32:18.267Z,2.31
2018-03-04T05:33:18.277Z,2.31
2018-03-04T05:34:18.266Z,2.31
2018-03-04T05:35:18.279Z,2.31
2018-03-04T05:36:18.313Z,2.31
2018-03-04T05:37:18.319Z,2.31
2018-03-04T05:38:18.309Z,2.31
2018-03-04T05:39:18.291Z,2.31
2018-03-04T05:40:18.295Z,2.31
2018-03-04T05:41:18.306Z,2.31
2018-03-04T05:42:18.312Z,2.31
2018-03-04T05:43:18.351Z,2.37
2018-03-04T05:44:18.304Z,2.37
2018-03-04T05:45:18.310Z,2.37
2018-03-04T05:46:18.331Z,2.37
2018-03-04T05:47:18.320Z,2.37
2018-03-04T05:48:18.326Z,2.37
2018-03-04T05:49:18.328Z,2.37
2018-03-04T05:50:18.337Z,2.37
2018-03-04T05:51:18.416Z,2.37
2018-03-04T05:52:18.333Z,2.37
2018-03-04T05:53:18.365Z,2.37
2018-03-04T05:54:18.349Z,2.44
2018-03-04T05:55:18.352Z,2.37
2018-03-04T05:56:18.376Z,2.37
2018-03-04T05:57:18.363Z,2.37
2018-03-04T06:00:18.455Z,2.44
2018-03-04T06:01:18.345Z,2.37
2018-03-04T06:02:18.410Z,2.44
2018-03-04T06:03:18.476Z,2.44
2018-03-04T06:04:18.382Z,2.5
2018-03-04T06:05:18.422Z,2.44
2018-03-04T06:06:18.379Z,2.44
2018-03-04T06:07:18.464Z,2.44
2018-03-04T06:08:18.553Z,2.44
2018-03-04T06:09:18.462Z,2.44
2018-03-04T06:10:18.484Z,2.44
2018-03-04T06:11:18.390Z,2.44
2018-03-04T06:12:18.731Z,2.37
2018-03-04T06:13:18.399Z,2.44
2018-03-04T06:14:18.423Z,2.44
2018-03-04T06:15:18.414Z,2.44
2018-03-04T06:16:18.414Z,2.44
2018-03-04T06:17:18.408Z,2.44
2018-03-04T06:18:18.477Z,2.44
2018-03-04T06:19:19.336Z,2.44
2018-03-04T06:20:18.458Z,2.37
2018-03-04T06:21:18.434Z,2.44
2018-03-04T06:22:18.481Z,2.44
2018-03-04T06:23:18.441Z,2.37
2018-03-04T06:24:18.622Z,2.44
2018-03-04T06:25:18.561Z,2.44
2018-03-04T06:26:19.194Z,2.44
2018-03-04T06:27:18.575Z,2.44
2018-03-04T06:28:18.591Z,2.44
2018-03-04T06:29:18.452Z,2.44
2018-03-04T06:30:18.435Z,2.44
2018-03-04T06:31:18.465Z,2.44
2018-03-04T06:32:18.483Z,2.5
2018-03-04T06:33:18.443Z,2.44
2018-03-04T06:34:18.478Z,2.5
2018-03-04T06:35:18.463Z,2.44
2018-03-04T06:36:19.103Z,2.5
2018-03-04T06:37:18.449Z,2.5
2018-03-04T06:38:18.464Z,2.5
2018-03-04T06:39:18.571Z,2.5
2018-03-04T06:40:18.484Z,2.56
2018-03-04T06:41:18.524Z,2.56
2018-03-04T06:42:19.132Z,2.56
2018-03-04T06:43:18.903Z,2.56
2018-03-04T06:44:18.508Z,2.62
2018-03-04T06:45:18.481Z,2.62
2018-03-04T06:46:19.152Z,2.62
2018-03-04T06:47:19.104Z,2.62
2018-03-04T06:48:18.516Z,2.69
2018-03-04T06:49:18.520Z,2.69
2018-03-04T06:50:18.792Z,2.75
2018-03-04T06:51:18.730Z,2.75
2018-03-04T06:52:18.530Z,2.75
2018-03-04T06:53:18.517Z,2.75
2018-03-04T06:54:18.605Z,2.81
2018-03-04T06:55:18.623Z,2.81
2018-03-04T06:56:18.590Z,2.81
2018-03-04T06:57:19.222Z,2.81
2018-03-04T06:58:18.604Z,2.87
2018-03-04T06:59:18.773Z,2.81
2018-03-04T07:00:18.590Z,2.87
2018-03-04T07:01:18.607Z,2.87
2018-03-04T07:02:18.586Z,2.87
2018-03-04T07:03:18.589Z,2.87
2018-03-04T07:04:18.637Z,2.87
2018-03-04T07:05:19.325Z,2.87
2018-03-04T07:06:18.600Z,2.87
2018-03-04T07:07:18.711Z,2.94
2018-03-04T07:08:18.556Z,2.87
2018-03-04T07:09:18.706Z,2.87
2018-03-04T07:10:18.641Z,2.87
2018-03-04T07:11:18.611Z,2.87
2018-03-04T07:12:18.614Z,2.87
2018-03-04T07:13:18.663Z,2.87
2018-03-04T07:14:18.865Z,2.87
2018-03-04T07:15:18.775Z,2.94
2018-03-04T07:16:18.633Z,2.87
2018-03-04T07:17:18.613Z,2.87
2018-03-04T07:18:18.645Z,2.94
2018-03-04T07:19:18.634Z,2.87
2018-03-04T07:20:18.659Z,2.94
2018-03-04T07:21:18.657Z,2.94
2018-03-04T07:22:18.656Z,2.94
2018-03-04T07:23:18.716Z,2.94
2018-03-04T07:24:18.760Z,2.94
2018-03-04T07:25:19.285Z,2.94
2018-03-04T07:26:18.643Z,2.94
2018-03-04T07:27:18.625Z,3
2018-03-04T07:28:18.675Z,3.06
2018-03-04T07:29:18.701Z,3.06
2018-03-04T07:30:18.729Z,3.06
2018-03-04T07:31:18.661Z,3.06
2018-03-04T07:32:18.656Z,3.06
2018-03-04T07:33:19.002Z,3.12
2018-03-04T07:34:18.651Z,3.06
2018-03-04T07:35:18.720Z,3.12
2018-03-04T07:36:18.670Z,3.19
2018-03-04T07:37:18.662Z,3.19
2018-03-04T07:38:18.663Z,3.19
2018-03-04T07:39:19.379Z,3.25
2018-03-04T07:40:19.659Z,3.25
2018-03-04T07:41:18.712Z,3.31
2018-03-04T07:42:18.673Z,3.31
2018-03-04T07:43:19.282Z,3.37
2018-03-04T07:44:18.678Z,3.44
2018-03-04T07:46:25.011Z,3.5
2018-03-04T07:47:18.926Z,3.56
2018-03-04T07:48:18.646Z,3.56
2018-03-04T07:49:18.718Z,3.62
2018-03-04T07:50:18.680Z,3.69
2018-03-04T07:51:18.696Z,3.75
2018-03-04T07:52:18.676Z,3.81
2018-03-04T07:53:18.731Z,3.81
2018-03-04T07:54:18.693Z,3.87
2018-03-04T07:55:18.690Z,3.94
2018-03-04T07:56:18.716Z,3.94
2018-03-04T07:57:18.694Z,3.87
2018-03-04T07:58:18.703Z,3.87
2018-03-04T07:59:18.695Z,3.94
2018-03-04T08:00:18.702Z,3.94
2018-03-04T08:01:18.737Z,3.94
2018-03-04T08:02:18.771Z,4
2018-03-04T08:03:18.762Z,4
2018-03-04T08:04:18.801Z,4
2018-03-04T08:05:18.742Z,4
2018-03-04T08:06:18.759Z,4.12
2018-03-04T08:07:18.756Z,4.12
2018-03-04T08:08:18.732Z,4.12
2018-03-04T08:09:18.741Z,4.12
2018-03-04T08:10:18.795Z,4.19
2018-03-04T08:11:18.787Z,4.19
2018-03-04T08:12:18.722Z,4.31
2018-03-04T08:13:18.766Z,4.31
2018-03-04T08:14:18.912Z,4.37
2018-03-04T08:15:18.950Z,4.44
2018-03-04T08:16:18.780Z,4.44
2018-03-04T08:17:18.772Z,4.44
2018-03-04T08:18:18.845Z,4.44
2018-03-04T08:19:18.737Z,4.5
2018-03-04T08:20:18.755Z,4.5
2018-03-04T08:21:18.771Z,4.56
2018-03-04T08:22:18.754Z,4.56
2018-03-04T08:23:18.777Z,4.62
2018-03-04T08:24:19.876Z,4.62
2018-03-04T08:25:18.775Z,4.69
2018-03-04T08:26:18.780Z,4.69
2018-03-04T08:27:18.795Z,4.69
2018-03-04T08:28:18.958Z,4.75
2018-03-04T08:29:18.815Z,4.75
2018-03-04T08:30:18.788Z,4.81
2018-03-04T08:31:18.793Z,4.81
2018-03-04T08:32:18.802Z,4.87
2018-03-04T08:33:18.800Z,4.87
2018-03-04T08:34:18.784Z,4.87
2018-03-04T08:35:18.822Z,4.94
2018-03-04T08:36:18.794Z,5
2018-03-04T08:37:18.827Z,5
2018-03-04T08:38:18.807Z,5
2018-03-04T08:39:18.815Z,5.06
2018-03-04T08:40:18.975Z,5.06
2018-03-04T08:41:18.842Z,5.12
2018-03-04T08:42:18.902Z,5.12
2018-03-04T08:43:18.826Z,5.19
2018-03-04T08:44:19.234Z,5.19
2018-03-04T08:45:18.820Z,5.25
2018-03-04T08:46:18.831Z,5.19
2018-03-04T08:47:18.816Z,5.25
2018-03-04T08:48:18.838Z,5.25
2018-03-04T08:49:18.851Z,5.31
2018-03-04T08:50:18.854Z,5.37
2018-03-04T08:51:18.859Z,5.37
2018-03-04T08:52:18.834Z,5.37
2018-03-04T08:53:18.851Z,5.37
2018-03-04T08:54:18.861Z,5.44
2018-03-04T08:55:18.845Z,5.44
2018-03-04T08:56:18.866Z,5.44
2018-03-04T08:57:18.871Z,5.44
2018-03-04T08:58:18.843Z,5.44
2018-03-04T08:59:18.867Z,5.5
2018-03-04T09:00:18.841Z,5.5
2018-03-04T09:01:18.866Z,5.5
2018-03-04T09:02:19.182Z,5.5
2018-03-04T09:03:18.879Z,5.56
2018-03-04T09:04:18.880Z,5.56
2018-03-04T09:05:18.875Z,5.56
2018-03-04T09:06:18.969Z,5.62
2018-03-04T09:07:18.861Z,5.62
2018-03-04T09:08:19.709Z,5.69
2018-03-04T09:09:19.144Z,5.69
2018-03-04T09:10:18.876Z,5.75
2018-03-04T09:11:18.868Z,5.75
2018-03-04T09:14:19.018Z,5.87
2018-03-04T09:15:18.885Z,5.87
2018-03-04T09:16:18.884Z,5.94
2018-03-04T09:17:18.897Z,6
2018-03-04T09:18:18.972Z,6
2018-03-04T09:19:18.898Z,6.06
2018-03-04T09:20:18.907Z,6.06
2018-03-04T09:21:18.897Z,6.12
2018-03-04T09:22:18.946Z,6.12
2018-03-04T09:23:19.140Z,6.12
2018-03-04T09:24:18.943Z,6.12
2018-03-04T09:25:18.989Z,6.19
2018-03-04T09:26:18.937Z,6.19
2018-03-04T09:27:18.930Z,6.25
2018-03-04T09:28:18.994Z,6.25
2018-03-04T09:29:18.932Z,6.31
2018-03-04T09:30:18.924Z,6.37
2018-03-04T09:31:19.009Z,6.31
2018-03-04T09:32:18.973Z,6.37
2018-03-04T09:33:18.980Z,6.44
2018-03-04T09:34:18.976Z,6.44
2018-03-04T09:35:18.988Z,6.5
2018-03-04T09:36:19.029Z,6.56
2018-03-04T09:37:18.956Z,6.56
2018-03-04T09:38:18.974Z,6.56
2018-03-04T09:39:18.974Z,6.69
2018-03-04T09:40:19.046Z,6.69
2018-03-04T09:41:19.065Z,6.75
2018-03-04T09:42:19.006Z,6.75
2018-03-04T09:43:19.004Z,6.81
2018-03-04T09:44:18.990Z,6.94
2018-03-04T09:45:19.021Z,6.94
2018-03-04T09:46:18.997Z,6.94
2018-03-04T09:47:19.036Z,7
2018-03-04T09:48:19.057Z,7
2018-03-04T09:49:18.999Z,7
2018-03-04T09:50:19.078Z,7.06
2018-03-04T09:51:19.049Z,7.06
2018-03-04T09:52:19.043Z,7.06
2018-03-04T09:53:19.046Z,7.06
2018-03-04T09:54:19.053Z,7.12
2018-03-04T09:55:19.104Z,7.12
2018-03-04T09:56:19.024Z,7.12
2018-03-04T09:57:19.018Z,7.19
2018-03-04T09:58:19.063Z,7.19
2018-03-04T09:59:19.180Z,7.19
2018-03-04T10:00:19.052Z,7.31
2018-03-04T10:01:19.048Z,7.37
2018-03-04T10:02:19.057Z,7.37
2018-03-04T10:03:19.067Z,7.37
2018-03-04T10:04:19.063Z,7.37
2018-03-04T10:05:19.054Z,7.37
2018-03-04T10:06:19.153Z,7.37
2018-03-04T10:07:19.187Z,7.37
2018-03-04T10:08:19.077Z,7.44
2018-03-04T10:09:19.046Z,7.5
2018-03-04T10:10:19.093Z,7.5
2018-03-04T10:11:19.080Z,7.56
2018-03-04T10:12:19.095Z,7.56
2018-03-04T10:13:19.092Z,7.56
2018-03-04T10:14:19.074Z,7.56
2018-03-04T10:15:19.122Z,7.56
2018-03-04T10:16:19.076Z,7.56
2018-03-04T10:17:19.079Z,7.56
2018-03-04T10:18:19.114Z,7.62
2018-03-04T10:19:19.106Z,7.62
2018-03-04T10:20:19.089Z,7.69
2018-03-04T10:21:19.112Z,7.69
2018-03-04T10:22:19.119Z,7.62
2018-03-04T10:23:19.125Z,7.69
2018-03-04T10:24:19.118Z,7.69
2018-03-04T10:25:19.190Z,7.75
2018-03-04T10:26:19.140Z,7.75
2018-03-04T10:27:19.140Z,7.87
2018-03-04T10:28:19.135Z,7.87
2018-03-04T10:29:20.420Z,7.94
2018-03-04T10:30:19.175Z,8
2018-03-04T10:31:19.154Z,8
2018-03-04T10:32:19.148Z,8
2018-03-04T10:33:19.168Z,8
2018-03-04T10:34:20.624Z,8.06
2018-03-04T10:35:21.765Z,8.13
2018-03-04T10:36:19.595Z,8.13
2018-03-04T10:37:19.175Z,8.13
2018-03-04T10:38:20.060Z,8.19
2018-03-04T10:39:19.181Z,8.19
2018-03-04T10:40:19.351Z,8.25
2018-03-04T10:41:19.173Z,8.25
2018-03-04T10:42:19.185Z,8.25
2018-03-04T10:43:19.288Z,8.31
2018-03-04T10:44:19.209Z,8.38
2018-03-04T10:45:19.882Z,8.38
2018-03-04T10:46:19.651Z,8.44
2018-03-04T10:47:19.191Z,8.44
2018-03-04T10:48:19.245Z,8.5
2018-03-04T10:49:19.236Z,8.5
2018-03-04T10:50:19.492Z,8.63
2018-03-04T10:51:19.202Z,8.69
2018-03-04T10:52:19.214Z,8.69
2018-03-04T10:53:19.206Z,8.81
2018-03-04T10:54:19.238Z,8.81
2018-03-04T10:55:19.275Z,8.81
2018-03-04T10:56:19.239Z,8.88
2018-03-04T10:57:19.258Z,8.88
2018-03-04T10:58:19.248Z,8.94
2018-03-04T10:59:19.239Z,9
2018-03-04T11:00:24.401Z,9.06
2018-03-04T11:01:19.250Z,9.13
2018-03-04T11:02:19.556Z,9.25
2018-03-04T11:03:19.267Z,9.25
2018-03-04T11:04:19.295Z,9.38
2018-03-04T11:05:19.267Z,9.5
2018-03-04T11:06:19.274Z,9.5
2018-03-04T11:07:19.343Z,9.56
2018-03-04T11:08:19.309Z,9.63
2018-03-04T11:09:19.275Z,9.75
2018-03-04T11:10:19.298Z,9.75
2018-03-04T11:11:19.265Z,9.81
2018-03-04T11:12:19.298Z,9.81
2018-03-04T11:13:19.285Z,9.88
2018-03-04T11:14:19.308Z,10
2018-03-04T11:15:19.929Z,10
2018-03-04T11:16:19.645Z,10
2018-03-04T11:17:19.298Z,10.06
2018-03-04T11:18:19.324Z,10.06
2018-03-04T11:19:19.304Z,10
2018-03-04T11:20:19.319Z,10
2018-03-04T11:21:19.396Z,10.06
2018-03-04T11:22:19.324Z,10.13
2018-03-04T11:23:19.303Z,10.13
2018-03-04T11:24:19.337Z,10.13
2018-03-04T11:25:19.346Z,10.19
2018-03-04T11:26:19.323Z,10.25
2018-03-04T11:27:19.345Z,10.25
2018-03-04T11:28:19.328Z,10.38
2018-03-04T11:29:19.334Z,10.38
2018-03-04T11:30:19.326Z,10.44
2018-03-04T11:31:19.345Z,10.5
2018-03-04T11:32:19.434Z,10.56
2018-03-04T11:33:19.346Z,10.63
2018-03-04T11:34:19.370Z,10.69
2018-03-04T11:35:19.372Z,10.75
2018-03-04T11:36:19.416Z,10.75
2018-03-04T11:37:19.366Z,10.69
2018-03-04T11:38:19.369Z,10.75
2018-03-04T11:39:19.719Z,10.75
2018-03-04T11:40:19.983Z,10.81
2018-03-04T11:41:19.367Z,10.75
2018-03-04T11:42:19.590Z,10.81
2018-03-04T11:43:19.369Z,10.88
2018-03-04T11:44:19.364Z,10.94
2018-03-04T11:45:19.411Z,11.06
2018-03-04T11:46:19.487Z,11.06
2018-03-04T11:47:19.523Z,11.19
2018-03-04T11:48:19.465Z,11.19
2018-03-04T11:49:19.425Z,11.19
2018-03-04T11:50:19.414Z,11.25
2018-03-04T11:51:19.443Z,11.25
2018-03-04T11:52:19.426Z,11.31
2018-03-04T11:53:19.420Z,11.31
2018-03-04T11:54:19.418Z,11.38
2018-03-04T11:55:19.483Z,11.44
2018-03-04T11:56:19.488Z,11.44
2018-03-04T11:57:19.500Z,11.5
2018-03-04T11:58:19.490Z,11.63
2018-03-04T11:59:19.428Z,11.69
2018-03-04T12:00:19.518Z,11.81
2018-03-04T12:01:19.421Z,11.81
2018-03-04T12:02:19.476Z,11.94
2018-03-04T12:03:19.480Z,11.94
2018-03-04T12:04:19.475Z,12
2018-03-04T12:05:19.458Z,12.06
2018-03-04T12:06:19.471Z,12.06
2018-03-04T12:07:19.588Z,12.13
2018-03-04T12:08:19.475Z,12.13
2018-03-04T12:09:19.452Z,12.13
2018-03-04T12:10:19.452Z,12.19
2018-03-04T12:11:19.459Z,12.19
2018-03-04T12:12:19.478Z,12.31
2018-03-04T12:13:19.513Z,12.31
2018-03-04T12:14:19.474Z,12.37
2018-03-04T12:15:19.586Z,12.37
2018-03-04T12:16:19.479Z,12.5
2018-03-04T12:17:19.487Z,12.56
2018-03-04T12:18:19.500Z,12.56
2018-03-04T12:19:19.747Z,12.56
2018-03-04T12:20:19.584Z,12.63
2018-03-04T12:21:19.533Z,12.75
2018-03-04T12:22:19.609Z,12.75
2018-03-04T12:23:19.517Z,12.75
2018-03-04T12:24:19.525Z,12.81
2018-03-04T12:25:19.586Z,12.88
2018-03-04T12:26:19.587Z,12.94
2018-03-04T12:27:19.529Z,12.94
2018-03-04T12:28:19.593Z,13
2018-03-04T12:29:19.618Z,13
2018-03-04T12:30:19.600Z,13.06
2018-03-04T12:31:19.568Z,13.06
2018-03-04T12:32:19.550Z,13.06
2018-03-04T12:33:19.764Z,13.19
2018-03-04T12:34:19.674Z,13.25
2018-03-04T12:35:20.959Z,13.31
2018-03-04T12:36:19.583Z,13.38
2018-03-04T12:37:21.295Z,13.38
2018-03-04T12:38:19.559Z,13.44
2018-03-04T12:39:19.571Z,13.44
2018-03-04T12:40:19.585Z,13.44
2018-03-04T12:41:19.567Z,13.56
2018-03-04T12:42:19.623Z,13.56
2018-03-04T12:43:19.590Z,13.56
2018-03-04T12:44:19.569Z,13.56
2018-03-04T12:45:19.772Z,13.44
2018-03-04T12:46:20.437Z,13.56
2018-03-04T12:47:19.591Z,13.5
2018-03-04T12:48:19.581Z,13.56
2018-03-04T12:49:19.601Z,13.62
2018-03-04T12:50:19.631Z,13.56
2018-03-04T12:51:19.666Z,13.62
2018-03-04T12:52:19.665Z,13.62
2018-03-04T12:53:19.795Z,13.69
2018-03-04T12:54:19.821Z,13.62
2018-03-04T12:55:20.325Z,13.62
2018-03-04T12:56:20.456Z,13.69
2018-03-04T12:57:20.192Z,13.69
2018-03-04T12:58:21.105Z,13.75
2018-03-04T12:59:20.280Z,13.69
2018-03-04T13:00:19.642Z,13.75
2018-03-04T13:01:19.987Z,13.75
2018-03-04T13:02:19.649Z,13.75
2018-03-04T13:03:19.682Z,13.75
2018-03-04T13:04:19.663Z,13.69
2018-03-04T13:05:19.691Z,13.69
2018-03-04T13:06:19.659Z,13.62
2018-03-04T13:07:19.684Z,13.56
2018-03-04T13:08:19.691Z,13.56
2018-03-04T13:09:19.672Z,13.5
2018-03-04T13:10:19.694Z,13.44
2018-03-04T13:11:19.696Z,13.44
2018-03-04T13:12:20.081Z,13.38
2018-03-04T13:13:19.715Z,13.38
2018-03-04T13:14:19.689Z,13.31
2018-03-04T13:15:19.686Z,13.38
2018-03-04T13:16:19.674Z,13.31
2018-03-04T13:17:20.078Z,13.31
2018-03-04T13:18:20.048Z,13.38
2018-03-04T13:19:20.404Z,13.31
2018-03-04T13:20:20.058Z,13.31
2018-03-04T13:21:19.712Z,13.25
2018-03-04T13:22:20.035Z,13.31
2018-03-04T13:23:19.801Z,13.31
2018-03-04T13:24:19.733Z,13.31
2018-03-04T13:25:19.760Z,13.31
2018-03-04T13:26:19.736Z,13.38
2018-03-04T13:27:19.786Z,13.38
2018-03-04T13:28:19.744Z,13.38
2018-03-04T13:29:19.766Z,13.44
2018-03-04T13:30:19.775Z,13.44
2018-03-04T13:31:19.766Z,13.44